Daniel Island, South Carolina
Current Conditions -  °F | °C
As of 10:55 PM on Tuesday 25 Nov 2014 (Local Time) from KLRO Reporting Station
Overcast Overcast  
Wind Chill: 63°   Ceiling: 600
Heat Index: 63°   Visibility: 4mi
Dew Point: 63°   Wind: 8mph
Humidity: 100%   Direction: 360°N
Pressure: 29.89"   Gusts: NA
Location:  32.9577°N, 79.8822°W
Report Text: KLRO 260355Z AUTO 36007KT 4SM OVC006 17/17 A2989 RMK AO2 PWINO PNO
Loading
Personal Weather Stations






























Interactive Weather Map New forecast layout! Learn more

10-Day Weather Forecast

Advertisements
Track Severe Weather on mobile